createdAt,value
2023-03-07T00:00:35.588Z,121.63
2023-03-07T00:01:35.585Z,121.78
2023-03-07T00:02:35.579Z,120.97
2023-03-07T00:03:35.597Z,120.05
2023-03-07T00:04:35.521Z,121.26
2023-03-07T02:03:32.136Z,27.43
2023-03-07T02:04:32.101Z,26.24
2023-03-07T02:05:32.064Z,26.86
2023-03-07T02:06:32.002Z,26.42
2023-03-07T02:07:31.965Z,27.42
2023-03-07T02:08:43.308Z,23.64
2023-03-07T02:10:31.811Z,26.13
2023-03-07T02:11:31.761Z,27.15
2023-03-07T02:12:31.706Z,29.54
2023-03-07T02:13:31.664Z,31.73
2023-03-07T02:14:31.619Z,31.75
2023-03-07T02:15:31.615Z,25.61
2023-03-07T02:16:31.504Z,27.42
2023-03-07T02:17:31.452Z,28.19
2023-03-07T02:18:31.413Z,25.00
2023-03-07T02:19:31.381Z,27.96
2023-03-07T02:20:31.302Z,28.95
2023-03-07T02:21:31.256Z,27.42
2023-03-07T02:22:31.212Z,27.00
2023-03-07T02:23:31.155Z,27.23
2023-03-07T02:24:31.114Z,25.28
2023-03-07T02:25:31.067Z,29.33
2023-03-07T02:26:31.044Z,26.37
2023-03-07T02:27:30.965Z,28.38
2023-03-07T02:28:30.904Z,27.16
2023-03-07T02:29:30.854Z,25.00
2023-03-07T02:30:30.809Z,28.35
2023-03-07T02:31:30.799Z,30.62
2023-03-07T02:32:30.825Z,28.08
2023-03-07T02:33:30.654Z,28.52
2023-03-07T02:34:30.613Z,25.00
2023-03-07T02:35:30.580Z,29.46
2023-03-07T02:36:30.516Z,28.05
2023-03-07T02:37:30.446Z,25.00
2023-03-07T02:38:30.396Z,27.64
2023-03-07T02:39:30.377Z,28.01
2023-03-07T02:40:30.297Z,27.01
2023-03-07T02:41:30.257Z,28.33
2023-03-07T02:42:30.197Z,27.29
2023-03-07T02:43:30.147Z,26.58
2023-03-07T02:44:30.093Z,28.73
2023-03-07T02:45:30.052Z,25.00
2023-03-07T02:46:30.069Z,29.35
2023-03-07T02:47:29.971Z,27.85
2023-03-07T02:48:29.888Z,28.52
2023-03-07T02:49:29.836Z,27.09
2023-03-07T02:50:29.785Z,26.87
2023-03-07T02:51:29.732Z,25.11
2023-03-07T02:52:29.699Z,26.37
2023-03-07T02:53:29.636Z,29.87
2023-03-07T02:54:29.583Z,29.25
2023-03-07T02:55:29.538Z,27.96
2023-03-07T02:56:29.739Z,28.68
2023-03-07T02:57:29.434Z,30.06
2023-03-07T02:58:29.386Z,29.83
2023-03-07T02:59:29.334Z,30.26
2023-03-07T03:00:29.295Z,28.64
2023-03-07T03:01:29.308Z,29.49
2023-03-07T03:02:29.196Z,29.47
2023-03-07T03:03:29.181Z,31.79
2023-03-07T03:04:29.121Z,27.09
2023-03-07T03:05:29.041Z,27.18
2023-03-07T03:06:29.012Z,29.99
2023-03-07T03:07:28.938Z,29.30
2023-03-07T03:08:28.880Z,26.46
2023-03-07T03:09:28.833Z,29.83
2023-03-07T03:10:28.768Z,27.11
2023-03-07T03:11:28.718Z,27.26
2023-03-07T03:12:28.681Z,29.97
2023-03-07T03:13:28.615Z,25.00
2023-03-07T03:14:29.345Z,31.57
2023-03-07T03:15:28.520Z,31.33
2023-03-07T03:16:28.648Z,26.75
2023-03-07T03:17:28.425Z,26.86
2023-03-07T03:18:28.391Z,27.81
2023-03-07T03:19:28.348Z,29.90
2023-03-07T03:20:28.270Z,31.64
2023-03-07T03:21:28.262Z,28.70
2023-03-07T03:22:28.162Z,30.11
2023-03-07T03:23:28.109Z,27.04
2023-03-07T03:24:28.059Z,25.95
2023-03-07T03:25:28.014Z,27.60
2023-03-07T03:26:27.956Z,26.34
2023-03-07T03:27:27.907Z,27.71
2023-03-07T03:28:27.852Z,28.33
2023-03-07T03:29:27.805Z,28.37
2023-03-07T03:30:27.757Z,27.78
2023-03-07T03:31:27.836Z,28.44
2023-03-07T03:32:27.715Z,25.00
2023-03-07T03:33:27.591Z,28.35
2023-03-07T03:34:27.542Z,29.64
2023-03-07T03:35:27.510Z,28.49
2023-03-07T03:36:27.475Z,29.36
2023-03-07T03:37:27.380Z,29.31
2023-03-07T03:38:27.372Z,30.82
2023-03-07T03:39:27.265Z,28.40
2023-03-07T03:40:27.243Z,27.89
2023-03-07T03:41:27.168Z,27.80
2023-03-07T03:42:27.121Z,29.16
2023-03-07T03:43:27.057Z,28.79
2023-03-07T03:44:27.042Z,29.03
2023-03-07T03:45:26.954Z,29.33
2023-03-07T03:46:27.043Z,27.99
2023-03-07T03:47:26.937Z,29.83
2023-03-07T03:48:26.803Z,26.84
2023-03-07T03:49:26.780Z,29.28
2023-03-07T03:50:26.701Z,28.53
2023-03-07T03:51:26.689Z,29.28
2023-03-07T03:52:26.638Z,28.84
2023-03-07T03:53:26.550Z,27.01
2023-03-07T03:54:26.512Z,29.09
2023-03-07T03:55:26.439Z,27.11
2023-03-07T03:56:26.414Z,25.03
2023-03-07T03:57:26.372Z,25.80
2023-03-07T03:58:26.285Z,28.88
2023-03-07T03:59:26.231Z,26.77
2023-03-07T04:00:26.176Z,28.54
2023-03-07T04:01:26.150Z,26.71
2023-03-07T04:02:26.211Z,27.47
2023-03-07T04:03:26.027Z,27.39
2023-03-07T04:04:25.972Z,26.75
2023-03-07T04:05:25.922Z,25.92
2023-03-07T04:06:25.933Z,27.65
2023-03-07T04:07:25.842Z,26.33
2023-03-07T04:08:25.763Z,26.46
2023-03-07T04:09:25.714Z,27.50
2023-03-07T04:10:25.697Z,28.07
2023-03-07T04:11:25.652Z,29.41
2023-03-07T04:12:25.569Z,29.47
2023-03-07T04:13:25.546Z,29.22
2023-03-07T04:14:25.476Z,26.92
2023-03-07T04:15:25.444Z,29.96
2023-03-07T04:16:25.498Z,29.05
2023-03-07T04:17:25.346Z,28.41
2023-03-07T04:18:25.281Z,30.33
2023-03-07T04:19:25.228Z,29.16
2023-03-07T04:20:25.181Z,31.40
2023-03-07T04:21:25.215Z,27.09
2023-03-07T04:22:25.161Z,29.93
2023-03-07T04:23:25.054Z,30.33
2023-03-07T04:24:24.998Z,32.49
2023-03-07T04:25:24.928Z,26.44
2023-03-07T04:26:24.882Z,29.77
2023-03-07T04:27:24.850Z,27.68
2023-03-07T04:28:24.783Z,27.44
2023-03-07T04:29:24.732Z,28.85
2023-03-07T04:30:24.687Z,29.44
2023-03-07T04:31:24.743Z,28.47
2023-03-07T04:32:24.685Z,25.56
2023-03-07T04:33:24.543Z,27.76
2023-03-07T04:34:24.496Z,26.67
2023-03-07T04:35:24.442Z,28.30
2023-03-07T04:36:24.411Z,26.34
2023-03-07T04:37:24.370Z,26.95
2023-03-07T04:38:24.293Z,30.35
2023-03-07T04:39:24.353Z,28.97
2023-03-07T04:40:24.190Z,30.24
2023-03-07T04:41:24.148Z,29.07
2023-03-07T04:42:24.094Z,28.60
2023-03-07T04:43:24.039Z,30.10
2023-03-07T04:44:23.995Z,29.29
2023-03-07T04:45:23.947Z,29.22
2023-03-07T04:46:23.905Z,29.39
2023-03-07T04:47:23.837Z,33.14
2023-03-07T04:48:23.826Z,28.14
2023-03-07T04:49:23.743Z,30.12
2023-03-07T04:50:23.696Z,29.48
2023-03-07T04:51:23.644Z,29.76
2023-03-07T04:52:23.617Z,27.44
2023-03-07T04:53:23.594Z,28.13
2023-03-07T04:54:23.498Z,29.84
2023-03-07T04:55:23.475Z,29.77
2023-03-07T04:56:23.399Z,27.56
2023-03-07T04:57:23.353Z,30.24
2023-03-07T04:58:23.340Z,30.14
2023-03-07T04:59:23.289Z,28.73
2023-03-07T05:00:23.222Z,27.74
2023-03-07T05:01:23.204Z,28.69
2023-03-07T05:02:23.115Z,29.30
2023-03-07T05:03:23.062Z,29.30
2023-03-07T05:04:23.097Z,28.62
2023-03-07T05:05:22.964Z,30.75
2023-03-07T05:06:22.914Z,27.74
2023-03-07T05:07:22.867Z,27.38
2023-03-07T05:08:22.839Z,29.44
2023-03-07T05:09:22.767Z,29.74
2023-03-07T05:10:22.719Z,30.51
2023-03-07T05:11:22.683Z,28.13
2023-03-07T05:12:22.613Z,28.91
2023-03-07T05:13:22.557Z,30.72
2023-03-07T05:14:22.548Z,25.05
2023-03-07T05:15:22.491Z,28.43
2023-03-07T05:16:22.413Z,28.48
2023-03-07T05:17:22.362Z,27.79
2023-03-07T05:18:22.318Z,25.63
2023-03-07T05:19:22.264Z,27.41
2023-03-07T05:20:22.232Z,28.10
2023-03-07T05:21:22.200Z,28.81
2023-03-07T05:22:22.111Z,27.07
2023-03-07T05:23:22.059Z,25.98
2023-03-07T05:24:22.011Z,32.10
2023-03-07T05:25:21.957Z,28.24
2023-03-07T05:26:21.943Z,28.38
2023-03-07T05:27:21.882Z,27.15
2023-03-07T05:28:21.826Z,26.03
2023-03-07T05:29:21.781Z,29.74
2023-03-07T05:30:21.725Z,30.41
2023-03-07T05:31:21.844Z,30.03
2023-03-07T05:32:21.645Z,33.74
2023-03-07T05:33:21.570Z,28.64
2023-03-07T05:34:21.551Z,28.75
2023-03-07T05:35:21.471Z,28.11
2023-03-07T05:36:21.429Z,28.46
2023-03-07T05:37:21.384Z,30.44
2023-03-07T05:38:21.326Z,28.97
2023-03-07T05:39:21.302Z,29.26
2023-03-07T05:40:20.229Z,31.42
2023-03-07T05:41:21.186Z,33.02
2023-03-07T05:42:21.133Z,31.37
2023-03-07T05:43:21.109Z,33.43
2023-03-07T05:44:21.048Z,30.13
2023-03-07T05:45:21.016Z,28.10
2023-03-07T05:46:21.005Z,31.27
2023-03-07T05:47:20.882Z,29.04
2023-03-07T05:48:20.838Z,27.98
2023-03-07T05:49:20.793Z,31.03
2023-03-07T05:50:20.833Z,31.48
2023-03-07T05:51:20.701Z,27.19
2023-03-07T05:52:20.665Z,31.41
2023-03-07T05:53:20.608Z,30.92
2023-03-07T05:54:20.569Z,29.42
2023-03-07T05:55:20.559Z,28.29
2023-03-07T05:56:20.473Z,30.72
2023-03-07T05:57:20.428Z,30.98
2023-03-07T05:58:20.379Z,29.32
2023-03-07T05:59:20.359Z,28.57
2023-03-07T06:00:20.326Z,29.76
2023-03-07T06:01:20.243Z,28.04
2023-03-07T06:02:20.237Z,29.96
2023-03-07T06:03:20.144Z,31.02
2023-03-07T06:04:20.346Z,30.10
2023-03-07T06:05:20.055Z,31.58
2023-03-07T06:06:20.002Z,30.95
2023-03-07T06:07:19.962Z,27.75
2023-03-07T06:08:19.897Z,28.97
2023-03-07T06:09:19.936Z,27.75
2023-03-07T06:10:19.825Z,28.38
2023-03-07T06:11:19.758Z,30.96
2023-03-07T06:12:19.715Z,28.02
2023-03-07T06:13:19.667Z,28.41
2023-03-07T06:14:19.816Z,31.16
2023-03-07T06:15:19.608Z,30.12
2023-03-07T06:16:19.625Z,28.09
2023-03-07T06:17:19.494Z,28.08
2023-03-07T06:18:19.446Z,31.05
2023-03-07T06:19:19.839Z,29.54
2023-03-07T06:20:19.358Z,28.98
2023-03-07T06:21:19.307Z,32.47
2023-03-07T06:22:19.279Z,34.43
2023-03-07T06:23:19.259Z,40.88
2023-03-07T06:24:19.350Z,46.50
2023-03-07T06:25:19.199Z,56.76
2023-03-07T06:26:19.085Z,59.16
2023-03-07T06:27:19.047Z,63.42
2023-03-07T06:28:19.012Z,66.77
2023-03-07T06:29:18.954Z,63.75
2023-03-07T06:30:18.876Z,66.79
2023-03-07T06:31:18.904Z,63.80
2023-03-07T06:32:18.937Z,68.35
2023-03-07T06:33:18.742Z,69.26
2023-03-07T06:34:18.849Z,73.08
2023-03-07T06:35:18.625Z,71.24
2023-03-07T06:36:18.608Z,65.52
2023-03-07T06:37:18.529Z,71.38
2023-03-07T06:38:18.498Z,72.55
2023-03-07T06:39:18.418Z,78.45
2023-03-07T06:40:18.860Z,77.21
2023-03-07T06:41:18.348Z,81.74
2023-03-07T06:42:18.363Z,75.41
2023-03-07T06:43:18.332Z,82.50
2023-03-07T06:44:21.355Z,82.39
2023-03-07T06:45:18.125Z,82.72
2023-03-07T06:46:18.066Z,83.36
2023-03-07T06:47:18.043Z,84.76
2023-03-07T06:48:18.410Z,84.77
2023-03-07T06:49:17.910Z,93.17
2023-03-07T06:50:23.752Z,93.89
2023-03-07T06:51:17.769Z,94.36
2023-03-07T06:52:17.739Z,95.63
2023-03-07T06:53:17.693Z,96.37
2023-03-07T06:54:17.622Z,98.56
2023-03-07T06:55:17.572Z,108.82
2023-03-07T06:56:17.860Z,107.48
2023-03-07T06:57:17.470Z,108.50
2023-03-07T06:58:17.379Z,115.89
2023-03-07T06:59:17.356Z,119.69
2023-03-07T07:00:17.414Z,121.66
2023-03-07T07:01:17.249Z,124.89
2023-03-07T07:02:17.389Z,128.79
2023-03-07T07:03:17.283Z,132.93
2023-03-07T07:04:17.040Z,136.97
2023-03-07T07:05:17.371Z,137.26
2023-03-07T07:06:17.400Z,136.63
2023-03-07T07:07:16.867Z,134.00
2023-03-07T07:08:16.804Z,134.47
2023-03-07T07:09:16.750Z,132.93
2023-03-07T07:10:16.712Z,133.23
2023-03-07T07:11:16.641Z,133.23
2023-03-07T07:12:16.584Z,133.35
2023-03-07T07:13:16.522Z,129.23
2023-03-07T07:14:16.444Z,127.89
2023-03-07T07:15:16.836Z,127.15
2023-03-07T07:16:16.714Z,125.80
2023-03-07T07:17:16.259Z,123.81
2023-03-07T07:18:16.224Z,121.69
2023-03-07T07:19:16.399Z,121.79
2023-03-07T07:20:16.572Z,119.67
2023-03-07T07:21:16.062Z,112.67
2023-03-07T07:22:15.990Z,114.74
2023-03-07T07:23:15.941Z,111.77
2023-03-07T07:24:16.115Z,114.34
2023-03-07T07:25:15.865Z,112.80
2023-03-07T07:26:23.163Z,108.64
2023-03-07T07:27:15.709Z,109.01
2023-03-07T07:28:15.655Z,109.92
2023-03-07T07:29:15.625Z,109.76
2023-03-07T07:30:15.596Z,106.78
2023-03-07T07:31:15.948Z,104.83
2023-03-07T07:32:15.601Z,103.32
2023-03-07T07:33:15.550Z,103.80
2023-03-07T07:34:15.349Z,104.40
2023-03-07T07:35:15.327Z,99.35
2023-03-07T07:36:15.440Z,99.18
2023-03-07T07:37:15.215Z,98.22
2023-03-07T07:38:15.160Z,96.99
2023-03-07T07:39:15.123Z,88.97
2023-03-07T07:40:15.468Z,94.07
2023-03-07T07:41:15.076Z,90.63
2023-03-07T07:42:14.957Z,88.07
2023-03-07T07:43:15.907Z,91.58
2023-03-07T07:44:14.881Z,90.63
2023-03-07T07:45:14.856Z,65.27
2023-03-07T07:46:14.945Z,31.85
2023-03-07T07:47:14.955Z,23.91
2023-03-07T07:48:15.101Z,25.60
2023-03-07T07:49:14.678Z,46.83
2023-03-07T07:50:14.933Z,66.86
2023-03-07T07:51:14.989Z,74.86
2023-03-07T07:52:14.574Z,78.63
2023-03-07T07:53:14.525Z,81.28
2023-03-07T07:54:14.497Z,86.16
2023-03-07T07:55:14.913Z,91.49
2023-03-07T07:56:14.380Z,92.23
2023-03-07T07:57:14.331Z,95.08
2023-03-07T07:58:14.292Z,94.84
2023-03-07T07:59:14.241Z,100.29
2023-03-07T08:00:14.373Z,102.91
2023-03-07T08:01:14.129Z,106.71
2023-03-07T08:02:14.169Z,110.05
2023-03-07T08:03:14.106Z,113.07
2023-03-07T08:04:14.101Z,113.78
2023-03-07T08:05:13.934Z,118.87
2023-03-07T08:06:13.893Z,124.64
2023-03-07T08:07:13.882Z,128.08
2023-03-07T08:08:14.789Z,131.27
2023-03-07T08:09:13.739Z,134.13
2023-03-07T08:10:13.682Z,137.49
2023-03-07T08:11:13.635Z,139.39
2023-03-07T08:12:13.879Z,143.72
2023-03-07T08:13:13.689Z,149.03
2023-03-07T08:14:13.512Z,144.43
2023-03-07T08:15:13.875Z,154.41
2023-03-07T08:16:13.423Z,154.92
2023-03-07T08:17:13.350Z,160.72
2023-03-07T08:18:13.274Z,163.75
2023-03-07T08:19:13.223Z,160.81
2023-03-07T08:20:13.387Z,172.01
2023-03-07T08:21:13.116Z,172.79
2023-03-07T08:22:13.065Z,175.46
2023-03-07T08:23:13.088Z,171.21
2023-03-07T08:24:13.012Z,182.42
2023-03-07T08:25:13.460Z,186.43
2023-03-07T08:26:12.885Z,188.95
2023-03-07T08:27:12.816Z,185.69
2023-03-07T08:28:13.733Z,195.87
2023-03-07T08:29:13.009Z,184.36
2023-03-07T08:30:12.692Z,199.12
2023-03-07T08:31:12.662Z,196.71
2023-03-07T08:32:12.585Z,194.66
2023-03-07T08:33:12.503Z,207.63
2023-03-07T08:34:13.026Z,216.11
2023-03-07T08:35:12.391Z,223.16
2023-03-07T08:36:12.354Z,227.15
2023-03-07T08:37:13.579Z,171.90
2023-03-07T08:38:12.238Z,94.92
2023-03-07T08:39:12.332Z,54.63
2023-03-07T08:40:12.193Z,30.48
2023-03-07T08:41:12.137Z,24.12
2023-03-07T08:42:12.673Z,23.04
2023-03-07T08:43:12.204Z,25.71
2023-03-07T08:44:12.066Z,23.63
2023-03-07T08:45:12.458Z,24.84
2023-03-07T08:46:12.046Z,26.79
2023-03-07T08:47:12.394Z,56.05
2023-03-07T08:48:12.972Z,67.60
2023-03-07T08:49:12.017Z,74.09
2023-03-07T08:50:11.944Z,77.07
2023-03-07T08:51:11.920Z,84.94
2023-03-07T08:52:12.416Z,96.97
2023-03-07T08:53:11.867Z,103.84
2023-03-07T08:54:19.824Z,113.58
2023-03-07T08:55:15.028Z,114.41
2023-03-07T08:56:11.845Z,114.90
2023-03-07T08:57:11.791Z,118.71
2023-03-07T08:58:11.905Z,126.89
2023-03-07T08:59:11.711Z,138.90
2023-03-07T09:00:12.177Z,160.36
2023-03-07T09:01:11.969Z,167.71
2023-03-07T09:02:12.555Z,172.59
2023-03-07T09:03:11.942Z,178.67
2023-03-07T09:04:11.745Z,179.12
2023-03-07T09:05:11.534Z,188.04
2023-03-07T09:06:12.012Z,195.33
2023-03-07T09:07:11.638Z,203.49
2023-03-07T09:08:11.504Z,173.28
2023-03-07T09:09:11.400Z,113.00
2023-03-07T09:10:11.236Z,77.81
2023-03-07T09:11:11.526Z,53.86
2023-03-07T09:12:11.396Z,27.16
2023-03-07T09:13:11.729Z,21.63
2023-03-07T09:14:11.502Z,42.98
2023-03-07T09:15:11.378Z,71.49
2023-03-07T09:16:11.881Z,95.98
2023-03-07T09:17:11.164Z,120.38
2023-03-07T09:18:11.360Z,143.15
2023-03-07T09:19:11.412Z,151.63
2023-03-07T09:20:11.291Z,167.59
2023-03-07T09:21:11.295Z,179.16
2023-03-07T09:22:10.967Z,150.77
2023-03-07T09:23:13.758Z,106.85
2023-03-07T09:24:11.323Z,88.01
2023-03-07T09:25:10.456Z,69.82
2023-03-07T09:26:10.440Z,63.25
2023-03-07T09:27:10.377Z,56.94
2023-03-07T09:28:10.355Z,45.47
2023-03-07T09:29:10.359Z,58.95
2023-03-07T09:30:10.222Z,65.93
2023-03-07T09:31:10.246Z,100.97
2023-03-07T09:32:10.184Z,116.34
2023-03-07T09:33:10.106Z,136.49
2023-03-07T09:34:10.062Z,153.48
2023-03-07T09:35:09.983Z,160.88
2023-03-07T09:36:09.944Z,171.98
2023-03-07T09:37:09.895Z,181.43
2023-03-07T09:38:09.881Z,196.26
2023-03-07T09:39:09.903Z,204.94
2023-03-07T09:40:09.895Z,212.33
2023-03-07T09:41:09.693Z,214.93
2023-03-07T09:42:09.775Z,221.09
2023-03-07T09:43:09.606Z,229.42
2023-03-07T09:44:09.549Z,236.59
2023-03-07T09:45:09.951Z,242.45
2023-03-07T09:46:09.486Z,250.00
2023-03-07T09:47:09.413Z,248.49
2023-03-07T09:48:09.436Z,250.00
2023-03-07T09:49:09.308Z,249.43
2023-03-07T09:50:09.534Z,247.02
2023-03-07T09:51:11.882Z,249.67
2023-03-07T09:52:10.321Z,249.98
2023-03-07T09:53:09.428Z,251.85
2023-03-07T09:54:09.078Z,254.61
2023-03-07T09:55:10.169Z,258.64
2023-03-07T09:56:08.934Z,264.54
2023-03-07T09:57:08.910Z,249.11
2023-03-07T09:58:09.491Z,248.01
2023-03-07T09:59:21.996Z,248.38
2023-03-07T10:00:09.803Z,248.77
2023-03-07T10:01:08.979Z,249.03
2023-03-07T10:02:08.609Z,249.99
2023-03-07T10:03:08.908Z,251.91
2023-03-07T10:04:09.006Z,256.52
2023-03-07T10:05:08.956Z,260.41
2023-03-07T10:06:09.400Z,250.60
2023-03-07T10:07:08.336Z,248.30
2023-03-07T10:08:08.284Z,248.98
2023-03-07T10:09:08.556Z,247.98
2023-03-07T10:10:08.174Z,242.60
2023-03-07T10:11:08.129Z,247.36
2023-03-07T10:12:08.067Z,250.44
2023-03-07T10:13:09.304Z,245.45
2023-03-07T10:14:07.985Z,246.15
2023-03-07T10:15:08.011Z,242.83
2023-03-07T10:16:07.811Z,245.71
2023-03-07T10:17:07.754Z,248.11
2023-03-07T10:18:07.709Z,243.17
2023-03-07T10:19:07.721Z,248.79
2023-03-07T10:20:07.585Z,243.04
2023-03-07T10:21:08.010Z,243.90
2023-03-07T10:22:07.451Z,245.85
2023-03-07T10:23:07.509Z,247.21
2023-03-07T10:24:07.330Z,242.67
2023-03-07T10:25:07.255Z,245.04
2023-03-07T10:26:07.499Z,248.02
2023-03-07T10:27:07.115Z,246.21
2023-03-07T10:28:07.061Z,250.00
2023-03-07T10:29:06.995Z,247.00
2023-03-07T10:30:06.962Z,244.55
2023-03-07T10:31:06.860Z,247.25
2023-03-07T10:32:07.332Z,245.25
2023-03-07T10:33:06.746Z,246.64
2023-03-07T10:34:06.641Z,249.07
2023-03-07T10:35:06.577Z,243.96
2023-03-07T10:36:06.596Z,248.04
2023-03-07T10:37:09.400Z,250.00
2023-03-07T10:38:06.375Z,250.03
2023-03-07T10:39:13.724Z,250.15
2023-03-07T10:40:06.259Z,250.32
2023-03-07T10:41:06.610Z,251.58
2023-03-07T10:42:06.443Z,252.85
2023-03-07T10:43:06.086Z,253.78
2023-03-07T10:44:07.020Z,259.32
2023-03-07T10:45:05.935Z,247.31
2023-03-07T10:46:18.921Z,248.02
2023-03-07T10:47:05.990Z,248.28
2023-03-07T10:48:05.794Z,249.11
2023-03-07T10:49:07.575Z,250.24
2023-03-07T10:50:05.617Z,248.46
2023-03-07T10:51:13.531Z,249.53
2023-03-07T10:52:06.028Z,248.69
2023-03-07T10:53:05.489Z,248.69
2023-03-07T10:54:05.403Z,250.31
2023-03-07T10:55:05.346Z,253.70
2023-03-07T10:56:05.283Z,256.36
2023-03-07T10:57:05.546Z,263.81
2023-03-07T10:58:05.442Z,249.60
2023-03-07T10:59:05.234Z,249.61
2023-03-07T11:00:05.017Z,249.86
2023-03-07T11:01:04.979Z,249.37
2023-03-07T11:02:04.915Z,249.49
2023-03-07T11:03:04.841Z,249.38
2023-03-07T11:04:05.141Z,249.29
2023-03-07T11:05:04.737Z,248.10
2023-03-07T11:06:04.678Z,250.79
2023-03-07T11:07:04.581Z,248.47
2023-03-07T11:08:05.025Z,250.00
2023-03-07T11:09:04.511Z,248.55
2023-03-07T11:10:04.380Z,248.49
2023-03-07T11:11:04.315Z,249.13
2023-03-07T11:12:04.263Z,249.53
2023-03-07T11:13:04.196Z,249.21
2023-03-07T11:14:04.475Z,249.37
2023-03-07T11:15:05.061Z,249.49
2023-03-07T11:16:11.558Z,249.33
2023-03-07T11:17:03.939Z,249.51
2023-03-07T11:18:05.610Z,250.05
2023-03-07T11:19:03.965Z,249.53
2023-03-07T11:20:03.751Z,250.31
2023-03-07T11:21:03.994Z,251.03
2023-03-07T11:22:03.717Z,252.75
2023-03-07T11:23:03.573Z,254.85
2023-03-07T11:24:04.046Z,246.92
2023-03-07T11:25:03.434Z,247.34
2023-03-07T11:26:03.344Z,247.64
2023-03-07T11:27:03.272Z,249.57
2023-03-07T11:28:03.964Z,250.00
2023-03-07T11:29:03.133Z,249.98
2023-03-07T11:30:03.444Z,248.21
2023-03-07T11:31:03.063Z,247.32
2023-03-07T11:32:05.385Z,246.53
2023-03-07T11:33:02.894Z,246.67
2023-03-07T11:34:03.012Z,246.77
2023-03-07T11:35:02.738Z,245.04
2023-03-07T11:36:03.056Z,244.10
2023-03-07T11:37:02.605Z,244.06
2023-03-07T11:38:02.534Z,242.07
2023-03-07T11:39:03.447Z,241.51
2023-03-07T11:40:02.477Z,243.14
2023-03-07T11:41:02.355Z,241.68
2023-03-07T11:42:02.287Z,241.19
2023-03-07T11:43:02.237Z,239.54
2023-03-07T11:44:04.580Z,239.48
2023-03-07T11:45:02.099Z,239.58
2023-03-07T11:46:02.102Z,239.58
2023-03-07T11:47:01.987Z,239.52
2023-03-07T11:48:01.900Z,237.80
2023-03-07T11:49:01.842Z,237.20
2023-03-07T11:50:01.996Z,236.88
2023-03-07T11:51:01.719Z,235.82
2023-03-07T11:52:01.668Z,235.01
2023-03-07T11:53:01.588Z,236.44
2023-03-07T11:54:01.954Z,236.07
2023-03-07T11:55:01.481Z,233.45
2023-03-07T11:56:01.412Z,233.78
2023-03-07T11:57:01.476Z,232.12
2023-03-07T11:58:01.295Z,231.98
2023-03-07T11:59:01.235Z,230.82
2023-03-07T12:00:01.173Z,230.98
2023-03-07T12:01:01.483Z,228.87
2023-03-07T12:02:01.046Z,229.23
2023-03-07T12:03:01.550Z,228.61
2023-03-07T12:04:00.914Z,226.86
2023-03-07T12:05:00.845Z,227.52
2023-03-07T12:06:00.844Z,227.61
2023-03-07T12:07:00.960Z,227.95
2023-03-07T12:08:00.654Z,227.35
2023-03-07T12:09:00.703Z,225.45
2023-03-07T12:10:00.528Z,225.88
2023-03-07T12:11:00.482Z,224.85
2023-03-07T12:12:00.483Z,225.13
2023-03-07T12:13:00.373Z,224.43
2023-03-07T12:14:00.315Z,223.16
2023-03-07T12:15:00.225Z,221.61
2023-03-07T12:16:00.524Z,222.03
2023-03-07T12:17:00.142Z,221.73
2023-03-07T12:18:00.115Z,222.08
2023-03-07T12:18:59.995Z,220.98
2023-03-07T12:19:59.935Z,220.06
2023-03-07T12:21:00.133Z,220.13
2023-03-07T12:21:59.787Z,219.31
2023-03-07T12:23:00.026Z,219.54
2023-03-07T12:23:59.637Z,217.87
2023-03-07T12:24:59.570Z,216.64
2023-03-07T12:25:59.504Z,217.32
2023-03-07T12:26:59.430Z,217.17
2023-03-07T12:27:59.507Z,216.29
2023-03-07T12:28:59.310Z,216.03
2023-03-07T12:29:59.239Z,214.79
2023-03-07T12:30:59.164Z,213.35
2023-03-07T12:31:59.320Z,214.04
2023-03-07T12:32:59.161Z,213.70
2023-03-07T12:33:58.984Z,212.44
2023-03-07T12:34:59.561Z,212.31
2023-03-07T12:35:59.057Z,212.73
2023-03-07T12:36:58.898Z,211.40
2023-03-07T12:37:59.844Z,211.95
2023-03-07T12:38:58.993Z,209.60
2023-03-07T12:39:59.009Z,210.96
2023-03-07T12:40:58.635Z,208.10
2023-03-07T12:41:58.570Z,208.43
2023-03-07T12:42:58.496Z,208.50
2023-03-07T12:43:58.436Z,208.68
2023-03-07T12:44:58.504Z,206.68
2023-03-07T12:45:58.408Z,207.24
2023-03-07T12:46:58.245Z,207.92
2023-03-07T12:47:58.183Z,206.74
2023-03-07T12:48:58.140Z,206.39
2023-03-07T12:49:58.502Z,206.49
2023-03-07T12:50:58.014Z,206.09
2023-03-07T12:51:57.920Z,207.59
2023-03-07T12:52:57.854Z,206.47
2023-03-07T12:53:57.834Z,205.16
2023-03-07T12:54:58.090Z,203.57
2023-03-07T12:55:57.665Z,204.63
2023-03-07T12:56:57.985Z,204.92
2023-03-07T12:57:57.548Z,204.89
2023-03-07T12:58:57.495Z,204.35
2023-03-07T12:59:57.411Z,203.02
2023-03-07T13:00:57.520Z,202.50
2023-03-07T13:01:57.288Z,174.36
2023-03-07T13:02:57.223Z,95.52
2023-03-07T13:03:57.214Z,56.44
2023-03-07T13:04:57.105Z,66.38
2023-03-07T13:05:57.501Z,63.48
2023-03-07T13:06:57.514Z,35.72
2023-03-07T13:07:56.946Z,28.32
2023-03-07T13:08:56.912Z,49.58
2023-03-07T13:09:56.996Z,70.54
2023-03-07T13:10:56.989Z,72.97
2023-03-07T13:11:56.739Z,66.12
2023-03-07T13:12:56.687Z,46.63
2023-03-07T13:13:56.639Z,54.86
2023-03-07T13:14:56.620Z,85.97
2023-03-07T13:15:56.990Z,109.10
2023-03-07T13:16:56.584Z,108.24
2023-03-07T13:17:56.462Z,111.53
2023-03-07T13:18:56.402Z,117.21
2023-03-07T13:19:56.433Z,112.57
2023-03-07T13:20:56.508Z,126.06
2023-03-07T13:21:56.261Z,137.82
2023-03-07T13:22:56.218Z,147.26
2023-03-07T13:23:56.157Z,158.43
2023-03-07T13:24:56.107Z,163.83
2023-03-07T13:25:56.535Z,176.18
2023-03-07T13:26:57.005Z,183.67
2023-03-07T13:27:55.969Z,181.89
2023-03-07T13:28:55.902Z,184.96
2023-03-07T13:29:55.845Z,187.48
2023-03-07T13:30:55.827Z,191.93
2023-03-07T13:31:56.270Z,194.22
2023-03-07T13:32:55.688Z,196.46
2023-03-07T13:33:55.613Z,202.12
2023-03-07T13:34:55.575Z,212.73
2023-03-07T13:35:56.081Z,213.02
2023-03-07T13:36:55.520Z,212.26
2023-03-07T13:37:55.385Z,213.89
2023-03-07T13:38:55.325Z,213.77
2023-03-07T13:39:55.280Z,213.04
2023-03-07T13:40:55.212Z,212.21
2023-03-07T13:42:05.083Z,213.54
2023-03-07T13:42:55.122Z,213.91
2023-03-07T13:43:55.074Z,214.30
2023-03-07T13:44:55.028Z,215.08
2023-03-07T13:45:55.069Z,215.25
2023-03-07T13:46:54.896Z,215.14
2023-03-07T13:47:55.021Z,216.65
2023-03-07T13:48:54.825Z,215.88
2023-03-07T13:49:54.758Z,215.16
2023-03-07T13:50:54.711Z,216.69
2023-03-07T13:51:55.091Z,214.67
2023-03-07T13:52:55.049Z,214.25
2023-03-07T13:53:54.496Z,212.27
2023-03-07T13:54:54.443Z,213.18
2023-03-07T13:55:54.537Z,212.29
2023-03-07T13:56:54.287Z,214.41
2023-03-07T13:57:55.249Z,213.83
2023-03-07T13:58:54.203Z,214.41
2023-03-07T13:59:54.104Z,212.77
2023-03-07T14:00:54.645Z,213.46
2023-03-07T14:01:53.990Z,211.67
2023-03-07T14:02:53.907Z,211.98
2023-03-07T14:03:53.947Z,211.03
2023-03-07T14:04:54.030Z,210.63
2023-03-07T14:05:53.727Z,210.53
2023-03-07T14:06:53.634Z,210.24
2023-03-07T14:07:53.566Z,210.37
2023-03-07T14:08:53.544Z,211.15
2023-03-07T14:09:53.509Z,208.47
2023-03-07T14:10:53.374Z,208.66
2023-03-07T14:11:53.348Z,209.75
2023-03-07T14:12:53.236Z,208.87
2023-03-07T14:13:53.577Z,208.61
2023-03-07T14:14:53.208Z,207.01
2023-03-07T14:15:53.125Z,209.37
2023-03-07T14:16:52.971Z,206.98
2023-03-07T14:17:53.039Z,206.83
2023-03-07T14:18:53.364Z,206.25
2023-03-07T14:19:52.850Z,207.72
2023-03-07T14:20:52.707Z,205.61
2023-03-07T14:21:52.656Z,205.82
2023-03-07T14:22:53.044Z,206.37
2023-03-07T14:23:52.520Z,205.99
2023-03-07T14:24:52.539Z,204.41
2023-03-07T14:25:52.622Z,202.89
2023-03-07T14:26:52.335Z,204.20
2023-03-07T14:27:52.290Z,203.98
2023-03-07T14:28:52.210Z,204.38
2023-03-07T14:29:52.566Z,205.14
2023-03-07T14:30:52.076Z,205.25
2023-03-07T14:31:52.022Z,204.61
2023-03-07T14:32:51.965Z,202.52
2023-03-07T14:33:52.093Z,202.95
2023-03-07T14:34:52.041Z,203.65
2023-03-07T14:35:51.886Z,203.46
2023-03-07T14:36:52.052Z,203.95
2023-03-07T14:37:51.773Z,200.77